sensor_id;sensor_type;location;lat;lon;timestamp;pressure;altitude;pressure_sealevel;temperature;humidity
20971;BME280;10644;48.834;10.088;2022-12-18T00:01:28;97745.13;;;-2.66;61.23
20971;BME280;10644;48.834;10.088;2022-12-18T00:04:02;97745.84;;;-2.72;60.99
20971;BME280;10644;48.834;10.088;2022-12-18T00:06:32;97755.22;;;-2.59;60.42
20971;BME280;10644;48.834;10.088;2022-12-18T00:09:23;97752.97;;;-2.39;60.18
20971;BME280;10644;48.834;10.088;2022-12-18T00:11:51;97747.63;;;-2.66;60.17
20971;BME280;10644;48.834;10.088;2022-12-18T00:14:16;97751.03;;;-2.61;60.24
20971;BME280;10644;48.834;10.088;2022-12-18T00:16:45;97755.84;;;-2.73;60.40
20971;BME280;10644;48.834;10.088;2022-12-18T00:19:13;97756.63;;;-2.76;61.09
20971;BME280;10644;48.834;10.088;2022-12-18T00:21:46;97752.63;;;-2.66;60.84
20971;BME280;10644;48.834;10.088;2022-12-18T00:24:20;97747.78;;;-2.54;60.48
20971;BME280;10644;48.834;10.088;2022-12-18T00:26:50;97749.50;;;-2.50;59.61
20971;BME280;10644;48.834;10.088;2022-12-18T00:29:16;97759.44;;;-2.56;59.98
20971;BME280;10644;48.834;10.088;2022-12-18T00:31:42;97766.09;;;-2.58;60.33
20971;BME280;10644;48.834;10.088;2022-12-18T00:34:10;97756.75;;;-2.68;60.49
20971;BME280;10644;48.834;10.088;2022-12-18T00:36:37;97774.69;;;-2.98;61.33
20971;BME280;10644;48.834;10.088;2022-12-18T00:39:07;97773.03;;;-2.97;61.20
20971;BME280;10644;48.834;10.088;2022-12-18T00:41:33;97773.34;;;-2.76;60.64
20971;BME280;10644;48.834;10.088;2022-12-18T00:44:18;97776.75;;;-2.73;60.38
20971;BME280;10644;48.834;10.088;2022-12-18T00:46:44;97763.56;;;-2.60;59.84
20971;BME280;10644;48.834;10.088;2022-12-18T00:49:15;97780.00;;;-2.80;60.26
20971;BME280;10644;48.834;10.088;2022-12-18T00:52:05;97778.88;;;-2.95;60.99
20971;BME280;10644;48.834;10.088;2022-12-18T00:55:05;97776.53;;;-2.86;60.90
20971;BME280;10644;48.834;10.088;2022-12-18T00:58:00;97780.53;;;-2.97;61.00
20971;BME280;10644;48.834;10.088;2022-12-18T01:00:30;97773.28;;;-3.31;61.96
20971;BME280;10644;48.834;10.088;2022-12-18T01:03:02;97765.97;;;-3.68;62.58
20971;BME280;10644;48.834;10.088;2022-12-18T01:05:39;97770.50;;;-3.48;62.64
20971;BME280;10644;48.834;10.088;2022-12-18T01:08:06;97760.41;;;-3.52;62.72
20971;BME280;10644;48.834;10.088;2022-12-18T01:10:40;97753.44;;;-3.70;63.16
20971;BME280;10644;48.834;10.088;2022-12-18T01:13:08;97754.44;;;-3.60;63.15
20971;BME280;10644;48.834;10.088;2022-12-18T01:15:35;97759.31;;;-3.66;63.71
20971;BME280;10644;48.834;10.088;2022-12-18T01:18:05;97755.59;;;-3.42;62.27
20971;BME280;10644;48.834;10.088;2022-12-18T01:20:32;97750.59;;;-3.40;62.28
20971;BME280;10644;48.834;10.088;2022-12-18T01:22:58;97744.00;;;-3.35;61.96
20971;BME280;10644;48.834;10.088;2022-12-18T01:28:31;97755.00;;;-3.27;61.86
20971;BME280;10644;48.834;10.088;2022-12-18T01:31:33;97774.94;;;-3.33;62.01
20971;BME280;10644;48.834;10.088;2022-12-18T01:34:03;97776.84;;;-3.19;61.44
20971;BME280;10644;48.834;10.088;2022-12-18T01:36:32;97778.88;;;-3.46;62.33
20971;BME280;10644;48.834;10.088;2022-12-18T01:39:08;97780.97;;;-3.22;62.06
20971;BME280;10644;48.834;10.088;2022-12-18T01:41:35;97781.81;;;-3.20;61.83
20971;BME280;10644;48.834;10.088;2022-12-18T01:44:51;97793.09;;;-3.43;62.35
20971;BME280;10644;48.834;10.088;2022-12-18T01:50:44;97780.75;;;-3.34;62.92
20971;BME280;10644;48.834;10.088;2022-12-18T01:53:21;97786.66;;;-3.29;62.85
20971;BME280;10644;48.834;10.088;2022-12-18T01:55:58;97794.69;;;-3.48;62.83
20971;BME280;10644;48.834;10.088;2022-12-18T01:58:54;97812.84;;;-4.00;64.39
20971;BME280;10644;48.834;10.088;2022-12-18T02:01:29;97807.84;;;-4.00;64.84
20971;BME280;10644;48.834;10.088;2022-12-18T02:04:18;97787.66;;;-3.67;64.11
20971;BME280;10644;48.834;10.088;2022-12-18T02:07:19;97794.97;;;-3.33;62.93
20971;BME280;10644;48.834;10.088;2022-12-18T02:19:01;97774.25;;;-3.25;61.60
20971;BME280;10644;48.834;10.088;2022-12-18T02:21:34;97793.53;;;-3.19;61.99
20971;BME280;10644;48.834;10.088;2022-12-18T02:27:11;97785.09;;;-3.24;61.58
20971;BME280;10644;48.834;10.088;2022-12-18T02:29:59;97784.31;;;-3.20;61.10
20971;BME280;10644;48.834;10.088;2022-12-18T02:32:34;97782.38;;;-3.36;61.26
20971;BME280;10644;48.834;10.088;2022-12-18T02:35:11;97773.72;;;-3.06;60.76
20971;BME280;10644;48.834;10.088;2022-12-18T02:37:43;97766.81;;;-3.20;60.46
20971;BME280;10644;48.834;10.088;2022-12-18T02:40:14;97775.84;;;-3.27;61.18
20971;BME280;10644;48.834;10.088;2022-12-18T02:43:02;97796.94;;;-3.14;60.86
20971;BME280;10644;48.834;10.088;2022-12-18T02:45:27;97803.81;;;-3.50;61.60
20971;BME280;10644;48.834;10.088;2022-12-18T02:47:56;97811.47;;;-3.41;61.05
20971;BME280;10644;48.834;10.088;2022-12-18T02:50:34;97813.81;;;-3.04;60.08
20971;BME280;10644;48.834;10.088;2022-12-18T02:56:11;97812.03;;;-3.11;59.75
20971;BME280;10644;48.834;10.088;2022-12-18T02:58:58;97812.16;;;-3.50;60.99
20971;BME280;10644;48.834;10.088;2022-12-18T03:01:51;97799.56;;;-3.54;61.06
20971;BME280;10644;48.834;10.088;2022-12-18T03:04:27;97821.34;;;-3.92;62.26
20971;BME280;10644;48.834;10.088;2022-12-18T03:07:26;97824.47;;;-3.60;61.75
20971;BME280;10644;48.834;10.088;2022-12-18T03:09:54;97814.66;;;-3.51;61.35
20971;BME280;10644;48.834;10.088;2022-12-18T03:12:37;97828.44;;;-3.28;60.95
20971;BME280;10644;48.834;10.088;2022-12-18T03:15:24;97818.56;;;-3.19;60.55
20971;BME280;10644;48.834;10.088;2022-12-18T03:17:59;97817.13;;;-3.53;61.09
20971;BME280;10644;48.834;10.088;2022-12-18T03:20:32;97834.22;;;-3.74;62.18
20971;BME280;10644;48.834;10.088;2022-12-18T03:23:30;97842.31;;;-3.85;62.98
20971;BME280;10644;48.834;10.088;2022-12-18T03:26:02;97850.88;;;-4.14;64.15
20971;BME280;10644;48.834;10.088;2022-12-18T03:29:03;97841.66;;;-3.78;63.21
20971;BME280;10644;48.834;10.088;2022-12-18T03:31:35;97831.94;;;-4.03;64.47
20971;BME280;10644;48.834;10.088;2022-12-18T03:34:06;97826.28;;;-3.96;64.73
20971;BME280;10644;48.834;10.088;2022-12-18T03:36:34;97833.28;;;-3.79;64.19
20971;BME280;10644;48.834;10.088;2022-12-18T03:39:24;97823.03;;;-3.49;63.08
20971;BME280;10644;48.834;10.088;2022-12-18T03:42:04;97806.63;;;-3.77;64.14
20971;BME280;10644;48.834;10.088;2022-12-18T03:47:59;97820.00;;;-4.16;65.87
20971;BME280;10644;48.834;10.088;2022-12-18T03:50:52;97808.00;;;-3.92;65.15
20971;BME280;10644;48.834;10.088;2022-12-18T03:53:46;97819.06;;;-3.81;65.24
20971;BME280;10644;48.834;10.088;2022-12-18T03:56:39;97819.25;;;-3.72;64.96
20971;BME280;10644;48.834;10.088;2022-12-18T03:59:09;97816.00;;;-3.68;65.02
20971;BME280;10644;48.834;10.088;2022-12-18T04:01:47;97816.63;;;-3.77;64.71
20971;BME280;10644;48.834;10.088;2022-12-18T04:04:43;97806.00;;;-3.68;65.55
20971;BME280;10644;48.834;10.088;2022-12-18T04:07:17;97820.34;;;-4.01;66.22
20971;BME280;10644;48.834;10.088;2022-12-18T04:09:46;97825.47;;;-3.95;66.15
20971;BME280;10644;48.834;10.088;2022-12-18T04:12:18;97820.13;;;-4.10;66.93
20971;BME280;10644;48.834;10.088;2022-12-18T04:14:50;97824.78;;;-4.27;67.92
20971;BME280;10644;48.834;10.088;2022-12-18T04:17:18;97821.81;;;-4.09;67.39
20971;BME280;10644;48.834;10.088;2022-12-18T04:19:56;97820.47;;;-3.95;66.87
20971;BME280;10644;48.834;10.088;2022-12-18T04:22:23;97819.13;;;-3.78;66.14
20971;BME280;10644;48.834;10.088;2022-12-18T04:24:57;97815.84;;;-3.74;66.01
20971;BME280;10644;48.834;10.088;2022-12-18T04:27:28;97817.78;;;-4.03;67.18
20971;BME280;10644;48.834;10.088;2022-12-18T04:29:53;97813.78;;;-3.95;67.33
20971;BME280;10644;48.834;10.088;2022-12-18T04:32:33;97815.34;;;-3.58;66.30
20971;BME280;10644;48.834;10.088;2022-12-18T04:35:02;97812.00;;;-3.57;66.19
20971;BME280;10644;48.834;10.088;2022-12-18T04:37:44;97813.75;;;-3.53;65.70
20971;BME280;10644;48.834;10.088;2022-12-18T04:40:12;97811.97;;;-3.60;66.07
20971;BME280;10644;48.834;10.088;2022-12-18T04:43:06;97826.56;;;-3.38;65.61
20971;BME280;10644;48.834;10.088;2022-12-18T04:45:32;97823.97;;;-3.44;65.36
20971;BME280;10644;48.834;10.088;2022-12-18T04:48:11;97830.22;;;-3.64;65.98
20971;BME280;10644;48.834;10.088;2022-12-18T04:50:38;97830.94;;;-3.71;66.76
20971;BME280;10644;48.834;10.088;2022-12-18T04:53:04;97833.25;;;-3.80;67.04
20971;BME280;10644;48.834;10.088;2022-12-18T04:55:37;97828.00;;;-3.92;67.88
20971;BME280;10644;48.834;10.088;2022-12-18T04:58:19;97847.59;;;-4.12;68.53
20971;BME280;10644;48.834;10.088;2022-12-18T05:01:03;97854.03;;;-4.23;68.64
20971;BME280;10644;48.834;10.088;2022-12-18T05:03:29;97844.06;;;-4.21;69.29
20971;BME280;10644;48.834;10.088;2022-12-18T05:06:00;97843.25;;;-4.20;69.85
20971;BME280;10644;48.834;10.088;2022-12-18T05:08:49;97861.50;;;-4.24;70.29
20971;BME280;10644;48.834;10.088;2022-12-18T05:11:15;97863.09;;;-4.26;69.66
20971;BME280;10644;48.834;10.088;2022-12-18T05:14:09;97852.09;;;-4.34;70.92
20971;BME280;10644;48.834;10.088;2022-12-18T05:16:38;97850.47;;;-4.32;70.24
20971;BME280;10644;48.834;10.088;2022-12-18T05:19:18;97852.47;;;-4.18;70.35
20971;BME280;10644;48.834;10.088;2022-12-18T05:21:57;97842.03;;;-4.00;69.67
20971;BME280;10644;48.834;10.088;2022-12-18T05:24:34;97836.81;;;-3.69;68.75
20971;BME280;10644;48.834;10.088;2022-12-18T05:27:07;97852.72;;;-3.67;68.87
20971;BME280;10644;48.834;10.088;2022-12-18T05:29:38;97840.88;;;-3.74;68.62
20971;BME280;10644;48.834;10.088;2022-12-18T05:32:18;97841.69;;;-4.15;70.04
20971;BME280;10644;48.834;10.088;2022-12-18T05:34:48;97840.13;;;-4.10;69.85
20971;BME280;10644;48.834;10.088;2022-12-18T05:37:17;97841.00;;;-4.10;70.22
20971;BME280;10644;48.834;10.088;2022-12-18T05:39:51;97841.81;;;-4.09;70.11
20971;BME280;10644;48.834;10.088;2022-12-18T05:42:18;97841.81;;;-4.09;70.41
20971;BME280;10644;48.834;10.088;2022-12-18T05:45:00;97846.41;;;-3.90;69.76
20971;BME280;10644;48.834;10.088;2022-12-18T05:47:48;97852.06;;;-3.97;69.74
20971;BME280;10644;48.834;10.088;2022-12-18T05:50:14;97853.31;;;-4.17;70.10
20971;BME280;10644;48.834;10.088;2022-12-18T05:52:39;97844.78;;;-4.27;70.64
20971;BME280;10644;48.834;10.088;2022-12-18T05:55:05;97834.53;;;-4.37;70.78
20971;BME280;10644;48.834;10.088;2022-12-18T06:00:50;97841.13;;;-4.04;69.99
20971;BME280;10644;48.834;10.088;2022-12-18T06:03:16;97839.53;;;-4.00;69.35
20971;BME280;10644;48.834;10.088;2022-12-18T06:05:45;97844.81;;;-3.85;69.29
20971;BME280;10644;48.834;10.088;2022-12-18T06:08:20;97847.06;;;-3.97;69.13
20971;BME280;10644;48.834;10.088;2022-12-18T06:10:54;97860.34;;;-4.01;69.55
20971;BME280;10644;48.834;10.088;2022-12-18T06:13:22;97862.47;;;-3.79;68.89
20971;BME280;10644;48.834;10.088;2022-12-18T06:16:07;97864.53;;;-4.00;68.77
20971;BME280;10644;48.834;10.088;2022-12-18T06:18:33;97864.03;;;-3.83;68.89
20971;BME280;10644;48.834;10.088;2022-12-18T06:21:01;97864.97;;;-3.79;68.12
20971;BME280;10644;48.834;10.088;2022-12-18T06:23:36;97866.25;;;-3.98;68.63
20971;BME280;10644;48.834;10.088;2022-12-18T06:26:11;97878.13;;;-3.88;68.52
20971;BME280;10644;48.834;10.088;2022-12-18T06:31:29;97875.47;;;-4.32;69.11
20971;BME280;10644;48.834;10.088;2022-12-18T06:33:55;97879.41;;;-4.42;69.81
20971;BME280;10644;48.834;10.088;2022-12-18T06:36:22;97884.38;;;-4.43;69.67
20971;BME280;10644;48.834;10.088;2022-12-18T06:38:48;97877.91;;;-4.35;70.01
20971;BME280;10644;48.834;10.088;2022-12-18T06:41:16;97871.06;;;-4.42;70.17
20971;BME280;10644;48.834;10.088;2022-12-18T06:43:43;97880.47;;;-4.32;69.74
20971;BME280;10644;48.834;10.088;2022-12-18T06:46:09;97874.03;;;-3.84;68.72
20971;BME280;10644;48.834;10.088;2022-12-18T06:48:41;97877.84;;;-4.01;68.98
20971;BME280;10644;48.834;10.088;2022-12-18T06:51:08;97863.91;;;-3.90;68.37
20971;BME280;10644;48.834;10.088;2022-12-18T06:53:35;97856.94;;;-3.63;68.28
20971;BME280;10644;48.834;10.088;2022-12-18T06:56:06;97860.75;;;-3.39;66.56
20971;BME280;10644;48.834;10.088;2022-12-18T06:58:34;97867.25;;;-3.48;67.46
20971;BME280;10644;48.834;10.088;2022-12-18T07:01:05;97872.41;;;-3.41;66.78
20971;BME280;10644;48.834;10.088;2022-12-18T07:03:31;97877.22;;;-3.50;67.13
20971;BME280;10644;48.834;10.088;2022-12-18T07:05:58;97882.72;;;-3.67;67.39
20971;BME280;10644;48.834;10.088;2022-12-18T07:08:31;97890.78;;;-3.80;68.55
20971;BME280;10644;48.834;10.088;2022-12-18T07:11:05;97890.13;;;-3.73;68.04
20971;BME280;10644;48.834;10.088;2022-12-18T07:13:32;97900.31;;;-4.03;69.27
20971;BME280;10644;48.834;10.088;2022-12-18T07:16:08;97913.19;;;-4.23;69.71
20971;BME280;10644;48.834;10.088;2022-12-18T07:18:34;97920.84;;;-4.16;70.01
20971;BME280;10644;48.834;10.088;2022-12-18T07:21:06;97912.59;;;-4.12;70.13
20971;BME280;10644;48.834;10.088;2022-12-18T07:23:33;97915.81;;;-4.17;70.46
20971;BME280;10644;48.834;10.088;2022-12-18T07:26:16;97920.53;;;-4.29;70.61
20971;BME280;10644;48.834;10.088;2022-12-18T07:28:45;97919.50;;;-4.37;71.19
20971;BME280;10644;48.834;10.088;2022-12-18T07:31:19;97921.00;;;-4.45;72.05
20971;BME280;10644;48.834;10.088;2022-12-18T07:33:45;97926.94;;;-4.39;71.20
20971;BME280;10644;48.834;10.088;2022-12-18T07:36:24;97938.53;;;-4.44;71.90
20971;BME280;10644;48.834;10.088;2022-12-18T07:38:51;97930.03;;;-4.50;72.22
20971;BME280;10644;48.834;10.088;2022-12-18T07:41:20;97936.94;;;-4.40;72.38
20971;BME280;10644;48.834;10.088;2022-12-18T07:43:52;97945.34;;;-4.37;72.46
20971;BME280;10644;48.834;10.088;2022-12-18T07:46:17;97951.13;;;-4.39;72.39
20971;BME280;10644;48.834;10.088;2022-12-18T07:48:43;97952.50;;;-4.50;72.73
20971;BME280;10644;48.834;10.088;2022-12-18T07:51:09;97957.56;;;-4.47;72.70
20971;BME280;10644;48.834;10.088;2022-12-18T07:53:36;97954.44;;;-4.40;72.78
20971;BME280;10644;48.834;10.088;2022-12-18T07:56:10;97956.81;;;-4.09;72.18
20971;BME280;10644;48.834;10.088;2022-12-18T07:58:41;97944.00;;;-3.87;71.54
20971;BME280;10644;48.834;10.088;2022-12-18T08:01:13;97940.91;;;-4.13;71.31
20971;BME280;10644;48.834;10.088;2022-12-18T08:03:45;97945.91;;;-4.13;71.79
20971;BME280;10644;48.834;10.088;2022-12-18T08:06:19;97942.16;;;-3.94;71.57
20971;BME280;10644;48.834;10.088;2022-12-18T08:08:52;97930.28;;;-4.04;71.95
20971;BME280;10644;48.834;10.088;2022-12-18T08:11:22;97944.59;;;-3.97;71.54
20971;BME280;10644;48.834;10.088;2022-12-18T08:13:50;97932.38;;;-3.84;71.40
20971;BME280;10644;48.834;10.088;2022-12-18T08:16:17;97934.38;;;-3.69;70.81
20971;BME280;10644;48.834;10.088;2022-12-18T08:18:46;97935.63;;;-3.89;71.66
20971;BME280;10644;48.834;10.088;2022-12-18T08:21:15;97929.56;;;-3.60;71.29
20971;BME280;10644;48.834;10.088;2022-12-18T08:23:44;97927.50;;;-3.79;71.02
20971;BME280;10644;48.834;10.088;2022-12-18T08:26:19;97939.84;;;-3.85;71.55
20971;BME280;10644;48.834;10.088;2022-12-18T08:28:47;97933.81;;;-3.96;72.00
20971;BME280;10644;48.834;10.088;2022-12-18T08:31:13;97926.81;;;-3.72;71.09
20971;BME280;10644;48.834;10.088;2022-12-18T08:33:42;97913.28;;;-3.82;71.86
20971;BME280;10644;48.834;10.088;2022-12-18T08:36:09;97923.00;;;-3.94;71.55
20971;BME280;10644;48.834;10.088;2022-12-18T08:38:39;97921.31;;;-3.95;72.15
20971;BME280;10644;48.834;10.088;2022-12-18T08:41:07;97915.47;;;-3.95;71.43
20971;BME280;10644;48.834;10.088;2022-12-18T08:43:36;97911.34;;;-3.93;72.04
20971;BME280;10644;48.834;10.088;2022-12-18T08:46:21;97925.00;;;-3.79;71.59
20971;BME280;10644;48.834;10.088;2022-12-18T08:48:50;97930.09;;;-3.75;71.29
20971;BME280;10644;48.834;10.088;2022-12-18T08:51:16;97934.84;;;-3.87;71.58
20971;BME280;10644;48.834;10.088;2022-12-18T08:53:44;97952.19;;;-3.94;71.90
20971;BME280;10644;48.834;10.088;2022-12-18T08:56:17;97937.44;;;-3.82;71.51
20971;BME280;10644;48.834;10.088;2022-12-18T08:58:43;97940.44;;;-3.60;70.77
20971;BME280;10644;48.834;10.088;2022-12-18T09:01:27;97939.72;;;-3.54;70.66
20971;BME280;10644;48.834;10.088;2022-12-18T09:03:55;97933.00;;;-3.55;70.44
20971;BME280;10644;48.834;10.088;2022-12-18T09:06:30;97933.78;;;-3.58;70.06
20971;BME280;10644;48.834;10.088;2022-12-18T09:09:04;97932.69;;;-3.70;70.57
20971;BME280;10644;48.834;10.088;2022-12-18T09:11:32;97921.22;;;-3.61;70.35
20971;BME280;10644;48.834;10.088;2022-12-18T09:14:00;97919.69;;;-3.54;69.61
20971;BME280;10644;48.834;10.088;2022-12-18T09:16:56;97914.88;;;-3.45;69.83
20971;BME280;10644;48.834;10.088;2022-12-18T09:19:22;97916.19;;;-3.62;70.23
20971;BME280;10644;48.834;10.088;2022-12-18T09:21:51;97919.59;;;-3.57;70.84
20971;BME280;10644;48.834;10.088;2022-12-18T09:24:16;97924.78;;;-3.51;70.64
20971;BME280;10644;48.834;10.088;2022-12-18T09:26:43;97922.63;;;-3.32;69.99
20971;BME280;10644;48.834;10.088;2022-12-18T09:29:10;97929.53;;;-3.20;69.91
20971;BME280;10644;48.834;10.088;2022-12-18T09:31:38;97910.25;;;-3.24;68.88
20971;BME280;10644;48.834;10.088;2022-12-18T09:34:04;97921.72;;;-3.37;70.03
20971;BME280;10644;48.834;10.088;2022-12-18T09:36:31;97909.00;;;-3.04;68.90
20971;BME280;10644;48.834;10.088;2022-12-18T09:38:57;97902.34;;;-3.02;68.61
20971;BME280;10644;48.834;10.088;2022-12-18T09:44:19;97915.22;;;-3.27;69.58
20971;BME280;10644;48.834;10.088;2022-12-18T09:49:32;97888.78;;;-3.13;69.11
20971;BME280;10644;48.834;10.088;2022-12-18T09:52:14;97883.81;;;-3.12;68.86
20971;BME280;10644;48.834;10.088;2022-12-18T09:55:06;97901.50;;;-3.01;69.39
20971;BME280;10644;48.834;10.088;2022-12-18T09:57:45;97906.56;;;-3.00;69.30
20971;BME280;10644;48.834;10.088;2022-12-18T10:00:18;97904.31;;;-2.86;68.86
20971;BME280;10644;48.834;10.088;2022-12-18T10:02:46;97897.72;;;-2.81;68.49
20971;BME280;10644;48.834;10.088;2022-12-18T10:05:14;97914.50;;;-2.77;68.25
20971;BME280;10644;48.834;10.088;2022-12-18T10:08:05;97923.63;;;-2.81;68.63
20971;BME280;10644;48.834;10.088;2022-12-18T10:10:46;97916.56;;;-3.00;69.14
20971;BME280;10644;48.834;10.088;2022-12-18T10:27:44;97901.06;;;-2.79;69.27
20971;BME280;10644;48.834;10.088;2022-12-18T10:30:16;97899.41;;;-2.80;69.13
20971;BME280;10644;48.834;10.088;2022-12-18T10:32:42;97902.50;;;-2.93;69.31
20971;BME280;10644;48.834;10.088;2022-12-18T10:35:24;97874.81;;;-3.01;69.75
20971;BME280;10644;48.834;10.088;2022-12-18T10:41:02;97899.72;;;-3.08;70.41
20971;BME280;10644;48.834;10.088;2022-12-18T10:43:36;97899.19;;;-2.92;70.08
20971;BME280;10644;48.834;10.088;2022-12-18T10:46:20;97900.94;;;-2.87;70.14
20971;BME280;10644;48.834;10.088;2022-12-18T10:48:52;97894.97;;;-2.95;70.09
20971;BME280;10644;48.834;10.088;2022-12-18T10:51:23;97910.19;;;-2.83;70.26
20971;BME280;10644;48.834;10.088;2022-12-18T10:54:23;97915.06;;;-2.90;70.10
20971;BME280;10644;48.834;10.088;2022-12-18T10:56:51;97903.31;;;-2.96;70.33
20971;BME280;10644;48.834;10.088;2022-12-18T10:59:22;97906.91;;;-2.31;70.54
20971;BME280;10644;48.834;10.088;2022-12-18T11:02:10;97905.06;;;-2.41;69.12
20971;BME280;10644;48.834;10.088;2022-12-18T11:04:54;97907.44;;;-2.49;68.86
20971;BME280;10644;48.834;10.088;2022-12-18T11:07:21;97897.28;;;-2.56;68.76
20971;BME280;10644;48.834;10.088;2022-12-18T11:10:00;97890.38;;;-2.72;69.92
20971;BME280;10644;48.834;10.088;2022-12-18T11:12:35;97902.63;;;-2.87;70.13
20971;BME280;10644;48.834;10.088;2022-12-18T11:15:02;97892.69;;;-2.81;70.69
20971;BME280;10644;48.834;10.088;2022-12-18T11:17:30;97905.19;;;-2.34;69.53
20971;BME280;10644;48.834;10.088;2022-12-18T11:20:01;97900.03;;;-2.44;69.17
20971;BME280;10644;48.834;10.088;2022-12-18T11:25:56;97906.63;;;-2.49;69.68
20971;BME280;10644;48.834;10.088;2022-12-18T11:31:29;97900.59;;;-2.60;70.38
20971;BME280;10644;48.834;10.088;2022-12-18T11:34:08;97897.97;;;-2.66;70.49
20971;BME280;10644;48.834;10.088;2022-12-18T11:37:09;97902.19;;;-2.64;70.52
20971;BME280;10644;48.834;10.088;2022-12-18T11:40:01;97884.53;;;-2.71;70.71
20971;BME280;10644;48.834;10.088;2022-12-18T11:42:48;97888.88;;;-2.60;70.43
20971;BME280;10644;48.834;10.088;2022-12-18T11:45:34;97889.53;;;-2.71;70.90
20971;BME280;10644;48.834;10.088;2022-12-18T11:48:18;97866.09;;;-2.73;71.24
20971;BME280;10644;48.834;10.088;2022-12-18T11:50:51;97870.94;;;-2.32;70.65
20971;BME280;10644;48.834;10.088;2022-12-18T11:53:26;97859.94;;;-2.41;69.98
20971;BME280;10644;48.834;10.088;2022-12-18T11:59:04;97866.34;;;-2.58;70.54
20971;BME280;10644;48.834;10.088;2022-12-18T12:02:35;97862.28;;;-2.50;71.22
20971;BME280;10644;48.834;10.088;2022-12-18T12:04:43;97865.88;;;-2.36;70.70
20971;BME280;10644;48.834;10.088;2022-12-18T12:07:19;97864.59;;;-2.09;70.16
20971;BME280;10644;48.834;10.088;2022-12-18T12:19:06;97834.72;;;-1.92;68.98
20971;BME280;10644;48.834;10.088;2022-12-18T12:21:42;97834.78;;;-1.88;69.15
20971;BME280;10644;48.834;10.088;2022-12-18T12:27:02;97831.66;;;-1.70;68.75
20971;BME280;10644;48.834;10.088;2022-12-18T12:40:19;97826.31;;;-1.96;69.26
20971;BME280;10644;48.834;10.088;2022-12-18T12:46:05;97827.22;;;-1.89;69.25
20971;BME280;10644;48.834;10.088;2022-12-18T12:48:41;97821.41;;;-1.85;68.94
20971;BME280;10644;48.834;10.088;2022-12-18T12:53:49;97818.91;;;-1.85;69.02
20971;BME280;10644;48.834;10.088;2022-12-18T12:56:17;97820.72;;;-1.72;68.95
20971;BME280;10644;48.834;10.088;2022-12-18T12:59:01;97823.44;;;-1.57;68.51
20971;BME280;10644;48.834;10.088;2022-12-18T13:01:49;97826.69;;;-1.66;68.87
20971;BME280;10644;48.834;10.088;2022-12-18T13:04:31;97834.22;;;-1.64;68.87
20971;BME280;10644;48.834;10.088;2022-12-18T13:09:34;97827.53;;;-1.65;68.30
20971;BME280;10644;48.834;10.088;2022-12-18T13:12:05;97821.00;;;-1.51;67.66
20971;BME280;10644;48.834;10.088;2022-12-18T13:14:52;97820.72;;;-1.75;68.68
20971;BME280;10644;48.834;10.088;2022-12-18T13:19:50;97815.66;;;-1.78;68.69
20971;BME280;10644;48.834;10.088;2022-12-18T13:22:24;97814.00;;;-1.76;68.71
20971;BME280;10644;48.834;10.088;2022-12-18T13:24:50;97813.41;;;-1.56;68.68
20971;BME280;10644;48.834;10.088;2022-12-18T13:35:42;97801.66;;;-1.60;68.27
20971;BME280;10644;48.834;10.088;2022-12-18T13:45:48;97820.91;;;-1.57;68.61
20971;BME280;10644;48.834;10.088;2022-12-18T13:48:19;97811.03;;;-1.41;67.84
20971;BME280;10644;48.834;10.088;2022-12-18T13:50:52;97808.59;;;-1.38;67.25
20971;BME280;10644;48.834;10.088;2022-12-18T13:53:22;97808.25;;;-1.66;68.32
20971;BME280;10644;48.834;10.088;2022-12-18T13:55:49;97806.56;;;-1.70;68.09
20971;BME280;10644;48.834;10.088;2022-12-18T13:58:15;97811.72;;;-1.58;68.42
20971;BME280;10644;48.834;10.088;2022-12-18T14:00:42;97815.06;;;-1.59;67.95
20971;BME280;10644;48.834;10.088;2022-12-18T14:03:23;97803.56;;;-1.38;67.67
20971;BME280;10644;48.834;10.088;2022-12-18T14:06:05;97801.09;;;-1.33;68.00
20971;BME280;10644;48.834;10.088;2022-12-18T14:08:39;97799.28;;;-1.46;67.85
20971;BME280;10644;48.834;10.088;2022-12-18T14:11:18;97803.50;;;-1.41;67.80
20971;BME280;10644;48.834;10.088;2022-12-18T14:13:45;97802.75;;;-1.32;67.19
20971;BME280;10644;48.834;10.088;2022-12-18T14:16:14;97797.78;;;-1.29;66.93
20971;BME280;10644;48.834;10.088;2022-12-18T14:18:48;97789.53;;;-1.16;66.55
20971;BME280;10644;48.834;10.088;2022-12-18T14:21:20;97807.16;;;-1.10;66.45
20971;BME280;10644;48.834;10.088;2022-12-18T14:23:49;97800.25;;;-1.34;66.80
20971;BME280;10644;48.834;10.088;2022-12-18T14:28:48;97789.75;;;-0.92;65.56
20971;BME280;10644;48.834;10.088;2022-12-18T14:31:21;97808.78;;;-1.18;66.47
20971;BME280;10644;48.834;10.088;2022-12-18T14:33:48;97808.78;;;-1.15;66.69
20971;BME280;10644;48.834;10.088;2022-12-18T14:36:20;97810.75;;;-0.86;65.24
20971;BME280;10644;48.834;10.088;2022-12-18T14:38:57;97816.22;;;-1.27;66.42
20971;BME280;10644;48.834;10.088;2022-12-18T14:41:26;97814.53;;;-1.31;66.60
20971;BME280;10644;48.834;10.088;2022-12-18T14:43:54;97816.84;;;-1.48;67.08
20971;BME280;10644;48.834;10.088;2022-12-18T14:48:58;97819.09;;;-1.70;67.94
20971;BME280;10644;48.834;10.088;2022-12-18T14:51:27;97821.66;;;-1.66;68.45
20971;BME280;10644;48.834;10.088;2022-12-18T14:54:03;97820.72;;;-1.72;68.51
20971;BME280;10644;48.834;10.088;2022-12-18T14:56:36;97819.09;;;-1.70;68.14
20971;BME280;10644;48.834;10.088;2022-12-18T15:04:42;97825.66;;;-1.81;68.88
20971;BME280;10644;48.834;10.088;2022-12-18T15:07:22;97817.44;;;-1.71;69.00
20971;BME280;10644;48.834;10.088;2022-12-18T15:10:20;97824.16;;;-1.66;68.90
20971;BME280;10644;48.834;10.088;2022-12-18T15:13:06;97827.59;;;-1.59;68.88
20971;BME280;10644;48.834;10.088;2022-12-18T15:20:58;97832.22;;;-1.89;69.22
20971;BME280;10644;48.834;10.088;2022-12-18T15:26:12;97831.19;;;-2.08;70.15
20971;BME280;10644;48.834;10.088;2022-12-18T15:28:51;97817.47;;;-2.29;70.91
20971;BME280;10644;48.834;10.088;2022-12-18T15:31:31;97816.78;;;-2.19;70.66
20971;BME280;10644;48.834;10.088;2022-12-18T15:37:09;97808.81;;;-1.91;69.88
20971;BME280;10644;48.834;10.088;2022-12-18T15:39:58;97812.75;;;-2.08;70.33
20971;BME280;10644;48.834;10.088;2022-12-18T15:42:25;97811.84;;;-2.13;70.70